createdAt,value
2023-01-01T00:00:14.351Z,14.13
2023-01-01T00:02:40.871Z,14.09
2023-01-01T00:05:08.094Z,14.08
2023-01-01T00:07:34.596Z,14.07
2023-01-01T00:10:19.610Z,14.09
2023-01-01T00:12:46.076Z,14.08
2023-01-01T00:15:12.596Z,14.05
2023-01-01T00:17:38.984Z,14.04
2023-01-01T00:20:05.982Z,13.99
2023-01-01T00:25:18.702Z,13.99
2023-01-01T00:27:45.111Z,13.93
2023-01-01T00:30:12.014Z,13.92
2023-01-01T00:32:38.565Z,14.09
2023-01-01T00:35:05.426Z,14.03
2023-01-01T00:37:31.757Z,14.00
2023-01-01T00:39:58.145Z,13.99
2023-01-01T00:42:24.532Z,14.07
2023-01-01T00:44:50.945Z,14.10
2023-01-01T00:47:17.309Z,14.05
2023-01-01T00:49:43.791Z,14.00
2023-01-01T00:52:10.171Z,14.05
2023-01-01T00:54:36.534Z,14.04
2023-01-01T00:57:02.901Z,14.13
2023-01-01T00:59:29.385Z,14.17
2023-01-01T01:01:56.074Z,14.12
2023-01-01T01:04:22.929Z,14.14
2023-01-01T01:06:49.310Z,14.12
2023-01-01T01:09:15.651Z,14.16
2023-01-01T01:11:42.055Z,14.15
2023-01-01T01:14:08.605Z,14.15
2023-01-01T01:16:35.423Z,14.19
2023-01-01T01:19:03.876Z,14.13
2023-01-01T01:21:32.369Z,14.12
2023-01-01T01:23:59.996Z,14.13
2023-01-01T01:26:29.528Z,14.06
2023-01-01T01:28:56.493Z,14.08
2023-01-01T01:31:26.580Z,14.08
2023-01-01T01:33:52.981Z,14.07
2023-01-01T01:36:19.857Z,14.00
2023-01-01T01:38:46.679Z,13.92
2023-01-01T01:41:27.939Z,13.87
2023-01-01T01:44:04.087Z,13.85
2023-01-01T01:46:41.340Z,13.79
2023-01-01T01:49:16.537Z,13.77
2023-01-01T01:51:44.329Z,13.78
2023-01-01T01:54:15.195Z,13.74
2023-01-01T01:56:49.759Z,13.70
2023-01-01T01:59:18.772Z,13.67
2023-01-01T02:01:45.224Z,13.66
2023-01-01T02:04:12.240Z,13.63
2023-01-01T02:06:38.922Z,13.58
2023-01-01T02:09:07.353Z,13.60
2023-01-01T02:11:33.808Z,13.61
2023-01-01T02:14:02.257Z,13.61
2023-01-01T02:16:47.153Z,13.55
2023-01-01T02:19:44.905Z,13.53
2023-01-01T02:22:21.515Z,13.51
2023-01-01T02:24:57.219Z,13.50
2023-01-01T02:27:49.660Z,13.52
2023-01-01T02:30:17.479Z,13.52
2023-01-01T02:32:50.315Z,13.56
2023-01-01T02:35:56.099Z,13.60
2023-01-01T02:38:45.187Z,13.58
2023-01-01T02:41:16.002Z,13.52
2023-01-01T02:43:43.017Z,13.55
2023-01-01T02:46:11.260Z,13.54
2023-01-01T02:48:44.273Z,13.51
2023-01-01T02:51:37.654Z,13.52
2023-01-01T02:54:13.046Z,13.51
2023-01-01T02:56:50.124Z,13.51
2023-01-01T02:59:47.791Z,13.52
2023-01-01T03:02:30.865Z,13.40
2023-01-01T03:05:07.902Z,13.43
2023-01-01T03:07:59.123Z,13.42
2023-01-01T03:10:53.496Z,13.42
2023-01-01T03:13:32.232Z,13.41
2023-01-01T03:16:04.579Z,13.39
2023-01-01T03:18:41.843Z,13.32
2023-01-01T03:23:47.825Z,13.39
2023-01-01T03:26:17.515Z,13.40
2023-01-01T03:28:48.733Z,13.44
2023-01-01T03:31:19.429Z,13.42
2023-01-01T03:33:49.937Z,13.40
2023-01-01T03:36:21.618Z,13.37
2023-01-01T03:38:52.933Z,13.40
2023-01-01T03:41:40.712Z,13.45
2023-01-01T03:44:13.221Z,13.50
2023-01-01T03:46:40.282Z,13.49
2023-01-01T03:49:11.057Z,13.46
2023-01-01T03:51:46.272Z,13.44
2023-01-01T03:54:35.108Z,13.33
2023-01-01T03:57:23.264Z,13.17
2023-01-01T04:00:17.105Z,13.04
2023-01-01T04:02:54.650Z,13.07
2023-01-01T04:05:21.984Z,13.05
2023-01-01T04:10:17.707Z,13.01
2023-01-01T04:12:52.053Z,12.94
2023-01-01T04:15:22.273Z,12.83
2023-01-01T04:17:48.703Z,12.74
2023-01-01T04:20:15.478Z,12.74
2023-01-01T04:22:41.936Z,12.71
2023-01-01T04:25:09.458Z,12.71
2023-01-01T04:27:36.313Z,12.71
2023-01-01T04:30:04.767Z,12.66
2023-01-01T04:32:31.257Z,12.56
2023-01-01T04:34:57.756Z,12.47
2023-01-01T04:37:24.388Z,12.39
2023-01-01T04:39:50.732Z,12.34
2023-01-01T04:42:17.077Z,12.24
2023-01-01T04:44:43.527Z,12.20
2023-01-01T04:47:10.441Z,12.16
2023-01-01T04:49:37.020Z,12.13
2023-01-01T04:52:04.077Z,12.09
2023-01-01T04:54:30.554Z,12.04
2023-01-01T04:56:56.873Z,12.02
2023-01-01T04:59:23.334Z,11.99
2023-01-01T05:01:49.992Z,12.00
2023-01-01T05:04:17.320Z,11.98
2023-01-01T05:06:44.035Z,11.96
2023-01-01T05:09:11.353Z,11.96
2023-01-01T05:11:38.447Z,11.94
2023-01-01T05:14:05.409Z,11.96
2023-01-01T05:16:35.289Z,11.94
2023-01-01T05:19:02.175Z,11.93
2023-01-01T05:21:33.615Z,11.88
2023-01-01T05:24:02.623Z,11.91
2023-01-01T05:26:31.972Z,11.92
2023-01-01T05:28:59.823Z,11.93
2023-01-01T05:31:33.256Z,11.89
2023-01-01T05:36:31.778Z,11.86
2023-01-01T05:38:58.904Z,11.90
2023-01-01T05:41:25.569Z,11.92
2023-01-01T05:43:52.906Z,11.92
2023-01-01T05:46:24.972Z,11.96
2023-01-01T05:48:53.347Z,11.92
2023-01-01T05:51:23.752Z,11.94
2023-01-01T05:53:51.085Z,11.89
2023-01-01T05:56:18.344Z,11.88
2023-01-01T05:58:45.817Z,11.88
2023-01-01T06:01:18.434Z,11.90
2023-01-01T06:03:45.394Z,11.92
2023-01-01T06:06:15.413Z,11.89
2023-01-01T06:08:41.997Z,11.90
2023-01-01T06:11:11.827Z,11.98
2023-01-01T06:13:38.328Z,11.93
2023-01-01T06:16:05.585Z,11.89
2023-01-01T06:18:34.929Z,11.87
2023-01-01T06:21:21.516Z,11.85
2023-01-01T06:23:47.991Z,11.81
2023-01-01T06:26:20.025Z,11.78
2023-01-01T06:28:47.499Z,11.80
2023-01-01T06:31:17.114Z,11.79
2023-01-01T06:33:44.034Z,11.76
2023-01-01T06:36:12.668Z,11.72
2023-01-01T06:38:41.922Z,11.72
2023-01-01T06:41:12.353Z,11.73
2023-01-01T06:43:39.183Z,11.72
2023-01-01T06:46:07.815Z,11.65
2023-01-01T06:48:36.323Z,11.62
2023-01-01T06:51:14.327Z,11.63
2023-01-01T06:53:41.063Z,11.67
2023-01-01T06:56:08.369Z,11.65
2023-01-01T06:58:35.016Z,11.58
2023-01-01T07:01:08.261Z,11.55
2023-01-01T07:03:35.435Z,11.52
2023-01-01T07:06:01.810Z,11.52
2023-01-01T07:08:28.309Z,11.49
2023-01-01T07:10:57.285Z,11.49
2023-01-01T07:13:28.116Z,11.45
2023-01-01T07:15:54.967Z,11.43
2023-01-01T07:18:22.876Z,11.38
2023-01-01T07:20:52.547Z,11.40
2023-01-01T07:23:19.176Z,11.38
2023-01-01T07:25:45.641Z,11.34
2023-01-01T07:28:13.137Z,11.32
2023-01-01T07:30:39.589Z,11.32
2023-01-01T07:33:06.010Z,11.29
2023-01-01T07:35:32.363Z,11.22
2023-01-01T07:37:58.790Z,11.22
2023-01-01T07:40:25.121Z,11.17
2023-01-01T07:42:51.466Z,11.18
2023-01-01T07:45:17.832Z,11.11
2023-01-01T07:47:51.169Z,11.04
2023-01-01T07:50:18.030Z,11.01
2023-01-01T07:52:44.789Z,11.01
2023-01-01T07:55:15.703Z,10.95
2023-01-01T07:57:43.149Z,10.91
2023-01-01T08:00:11.710Z,10.89
2023-01-01T08:02:38.459Z,10.84
2023-01-01T08:05:05.252Z,10.80
2023-01-01T08:07:31.726Z,10.77
2023-01-01T08:09:58.228Z,10.72
2023-01-01T08:12:25.009Z,10.68
2023-01-01T08:14:51.446Z,10.66
2023-01-01T08:17:18.066Z,10.63
2023-01-01T08:19:49.311Z,10.61
2023-01-01T08:22:16.459Z,10.60
2023-01-01T08:24:42.896Z,10.57
2023-01-01T08:27:13.921Z,10.52
2023-01-01T08:29:40.329Z,10.52
2023-01-01T08:32:06.797Z,10.53
2023-01-01T08:34:33.151Z,10.51
2023-01-01T08:37:02.480Z,10.49
2023-01-01T08:39:29.151Z,10.46
2023-01-01T08:41:55.605Z,10.47
2023-01-01T08:44:21.980Z,10.48
2023-01-01T08:46:48.412Z,10.48
2023-01-01T08:49:14.823Z,10.48
2023-01-01T08:51:41.181Z,10.50
2023-01-01T08:54:07.725Z,10.52
2023-01-01T08:56:34.063Z,10.51
2023-01-01T08:59:04.258Z,10.51
2023-01-01T09:01:31.355Z,10.50
2023-01-01T09:03:57.825Z,10.53
2023-01-01T09:06:24.268Z,10.57
2023-01-01T09:08:51.335Z,10.57
2023-01-01T09:11:28.091Z,10.55
2023-01-01T09:13:55.129Z,10.58
2023-01-01T09:16:22.336Z,10.58
2023-01-01T09:18:49.335Z,10.56
2023-01-01T09:21:15.828Z,10.63
2023-01-01T09:23:42.203Z,10.63
2023-01-01T09:26:09.952Z,10.61
2023-01-01T09:28:37.344Z,10.62
2023-01-01T09:31:06.377Z,10.63
2023-01-01T09:33:33.743Z,10.64
2023-01-01T09:36:26.824Z,10.73
2023-01-01T09:38:54.229Z,10.82
2023-01-01T09:41:49.941Z,10.92
2023-01-01T09:44:44.464Z,11.00
2023-01-01T09:47:21.585Z,11.07
2023-01-01T09:49:49.884Z,11.17
2023-01-01T09:52:17.147Z,11.30
2023-01-01T09:54:52.152Z,11.37
2023-01-01T09:57:20.434Z,11.45
2023-01-01T09:59:47.062Z,11.51
2023-01-01T10:02:32.450Z,11.72
2023-01-01T10:05:19.824Z,11.88
2023-01-01T10:08:05.289Z,11.86
2023-01-01T10:10:56.272Z,11.82
2023-01-01T10:13:28.701Z,11.80
2023-01-01T10:16:12.282Z,11.78
2023-01-01T10:18:41.362Z,11.77
2023-01-01T10:21:24.608Z,11.76
2023-01-01T10:24:39.692Z,11.76
2023-01-01T10:27:06.925Z,11.75
2023-01-01T10:29:48.211Z,11.77
2023-01-01T10:32:19.317Z,11.79
2023-01-01T10:34:46.821Z,11.81
2023-01-01T10:37:15.045Z,11.79
2023-01-01T10:39:42.628Z,11.86
2023-01-01T10:42:12.690Z,11.99
2023-01-01T10:44:39.549Z,12.07
2023-01-01T10:47:23.784Z,12.14
2023-01-01T10:49:58.949Z,12.15
2023-01-01T10:52:34.013Z,12.16
2023-01-01T10:55:00.498Z,12.15
2023-01-01T10:57:26.790Z,12.10
2023-01-01T10:59:54.700Z,12.09
2023-01-01T11:02:26.988Z,12.09
2023-01-01T11:05:17.677Z,12.08
2023-01-01T11:07:48.088Z,12.05
2023-01-01T11:10:21.214Z,12.06
2023-01-01T11:13:05.729Z,12.06
2023-01-01T11:15:42.525Z,12.08
2023-01-01T11:18:16.962Z,12.08
2023-01-01T11:20:43.719Z,12.07
2023-01-01T11:23:33.999Z,12.08
2023-01-01T11:26:12.592Z,12.05
2023-01-01T11:28:41.377Z,12.04
2023-01-01T11:31:13.839Z,12.03
2023-01-01T11:33:53.078Z,12.00
2023-01-01T11:36:33.241Z,11.97
2023-01-01T11:39:15.146Z,11.93
2023-01-01T11:41:47.974Z,11.92
2023-01-01T11:44:44.548Z,11.92
2023-01-01T11:47:27.767Z,11.94
2023-01-01T11:50:05.699Z,11.93
2023-01-01T11:52:38.282Z,11.94
2023-01-01T11:55:17.208Z,11.93
2023-01-01T11:58:06.032Z,11.91
2023-01-01T12:00:35.616Z,11.92
2023-01-01T12:03:15.365Z,11.95
2023-01-01T12:06:04.843Z,11.96
2023-01-01T12:08:47.044Z,12.02
2023-01-01T12:11:44.975Z,12.08
2023-01-01T12:14:32.732Z,12.16
2023-01-01T12:17:05.528Z,12.23
2023-01-01T12:19:59.428Z,12.24
2023-01-01T12:22:26.247Z,12.35
2023-01-01T12:24:53.811Z,12.42
2023-01-01T12:27:56.758Z,12.46
2023-01-01T12:30:44.746Z,12.47
2023-01-01T12:33:44.581Z,12.49
2023-01-01T12:36:48.712Z,12.47
2023-01-01T12:39:30.343Z,12.49
2023-01-01T12:42:18.282Z,12.49
2023-01-01T12:45:30.452Z,12.50
2023-01-01T12:48:00.251Z,12.50
2023-01-01T12:50:42.023Z,12.47
2023-01-01T12:53:35.709Z,12.44
2023-01-01T12:56:22.525Z,12.46
2023-01-01T12:59:01.940Z,12.48
2023-01-01T13:01:33.325Z,12.44
2023-01-01T13:04:04.534Z,12.41
2023-01-01T13:06:39.665Z,12.44
2023-01-01T13:09:19.167Z,12.44
2023-01-01T13:12:04.139Z,12.43
2023-01-01T13:14:30.883Z,12.41
2023-01-01T13:16:57.962Z,12.41
2023-01-01T13:19:32.362Z,12.43
2023-01-01T13:22:00.888Z,12.43
2023-01-01T13:24:27.638Z,12.40
2023-01-01T13:26:54.288Z,12.38
2023-01-01T13:29:20.642Z,12.37
2023-01-01T13:31:47.006Z,12.36
2023-01-01T13:34:32.199Z,12.32
2023-01-01T13:37:28.983Z,12.32
2023-01-01T13:40:01.232Z,12.29
2023-01-01T13:43:06.275Z,12.27
2023-01-01T13:48:34.822Z,12.23
2023-01-01T13:51:33.886Z,12.18
2023-01-01T13:54:41.540Z,12.16
2023-01-01T13:57:41.937Z,12.15
2023-01-01T14:00:22.196Z,12.12
2023-01-01T14:02:50.041Z,12.10
2023-01-01T14:05:42.616Z,12.10
2023-01-01T14:08:34.707Z,12.09
2023-01-01T14:11:02.588Z,12.06
2023-01-01T14:13:40.481Z,12.05
2023-01-01T14:16:10.749Z,12.04
2023-01-01T14:18:46.816Z,12.01
2023-01-01T14:21:20.051Z,11.99
2023-01-01T14:23:52.737Z,11.96
2023-01-01T14:26:21.636Z,11.96
2023-01-01T14:28:48.306Z,11.94
2023-01-01T14:31:21.646Z,11.93
2023-01-01T14:33:48.599Z,11.91
2023-01-01T14:36:25.550Z,11.91
2023-01-01T14:38:54.851Z,11.87
2023-01-01T14:41:41.418Z,11.84
2023-01-01T14:44:14.059Z,11.84
2023-01-01T14:46:43.800Z,11.84
2023-01-01T14:49:15.393Z,11.83
2023-01-01T14:51:45.527Z,11.81
2023-01-01T14:54:20.915Z,11.80
2023-01-01T14:56:51.528Z,11.78
2023-01-01T14:59:27.695Z,11.75
2023-01-01T15:02:12.570Z,11.72
2023-01-01T15:04:39.317Z,11.69
2023-01-01T15:07:22.620Z,11.67
2023-01-01T15:09:50.460Z,11.67
2023-01-01T15:12:20.950Z,11.64
2023-01-01T15:14:49.333Z,11.61
2023-01-01T15:17:20.497Z,11.58
2023-01-01T15:20:01.304Z,11.56
2023-01-01T15:22:33.240Z,11.54
2023-01-01T15:25:00.716Z,11.50
2023-01-01T15:27:32.936Z,11.49
2023-01-01T15:30:00.257Z,11.47
2023-01-01T15:32:34.586Z,11.46
2023-01-01T15:35:06.218Z,11.45
2023-01-01T15:37:37.870Z,11.43
2023-01-01T15:40:24.287Z,11.40
2023-01-01T15:42:56.789Z,11.40
2023-01-01T15:45:23.276Z,11.37
2023-01-01T15:47:51.118Z,11.33
2023-01-01T15:50:25.102Z,11.27
2023-01-01T15:52:58.791Z,11.28
2023-01-01T15:55:31.953Z,11.25
2023-01-01T15:57:59.487Z,11.23
2023-01-01T16:00:31.748Z,11.20
2023-01-01T16:03:02.134Z,11.19
2023-01-01T16:05:30.223Z,11.18
2023-01-01T16:08:05.027Z,11.19
2023-01-01T16:10:32.222Z,11.16
2023-01-01T16:12:59.143Z,11.17
2023-01-01T16:15:26.571Z,11.18
2023-01-01T16:17:53.148Z,11.17
2023-01-01T16:20:22.395Z,11.19
2023-01-01T16:22:48.835Z,11.19
2023-01-01T16:25:17.481Z,11.21
2023-01-01T16:27:43.942Z,11.19
2023-01-01T16:30:11.775Z,11.19
2023-01-01T16:32:38.434Z,11.19
2023-01-01T16:35:11.694Z,11.19
2023-01-01T16:37:38.445Z,11.23
2023-01-01T16:40:05.386Z,11.22
2023-01-01T16:42:31.724Z,11.19
2023-01-01T16:44:58.194Z,11.21
2023-01-01T16:47:24.687Z,11.23
2023-01-01T16:49:51.089Z,11.22
2023-01-01T16:52:17.505Z,11.21
2023-01-01T16:54:43.924Z,11.18
2023-01-01T16:57:10.364Z,11.18
2023-01-01T16:59:36.796Z,11.19
2023-01-01T17:02:03.298Z,11.21
2023-01-01T17:04:31.414Z,11.21
2023-01-01T17:06:57.737Z,11.20
2023-01-01T17:09:24.114Z,11.18
2023-01-01T17:11:50.488Z,11.17
2023-01-01T17:14:16.916Z,11.18
2023-01-01T17:16:43.381Z,11.21
2023-01-01T17:19:14.995Z,11.22
2023-01-01T17:21:42.712Z,11.21
2023-01-01T17:24:09.339Z,11.18
2023-01-01T17:26:35.907Z,11.17
2023-01-01T17:29:03.009Z,11.16
2023-01-01T17:31:29.797Z,11.14
2023-01-01T17:33:56.824Z,11.12
2023-01-01T17:36:23.728Z,11.12
2023-01-01T17:38:50.144Z,11.11
2023-01-01T17:41:17.266Z,11.10
2023-01-01T17:43:46.726Z,11.06
2023-01-01T17:46:22.015Z,11.05
2023-01-01T17:48:48.985Z,11.01
2023-01-01T17:51:16.350Z,10.96
2023-01-01T17:53:43.325Z,10.93
2023-01-01T17:56:12.964Z,10.89
2023-01-01T17:58:40.262Z,10.87
2023-01-01T18:01:12.808Z,10.83
2023-01-01T18:03:40.974Z,10.78
2023-01-01T18:06:08.865Z,10.76
2023-01-01T18:08:35.359Z,10.72
2023-01-01T18:11:01.822Z,10.68
2023-01-01T18:13:28.220Z,10.65
2023-01-01T18:15:59.124Z,10.61
2023-01-01T18:18:25.568Z,10.57
2023-01-01T18:20:51.991Z,10.54
2023-01-01T18:23:18.331Z,10.50
2023-01-01T18:25:44.662Z,10.49
2023-01-01T18:28:11.001Z,10.45
2023-01-01T18:30:37.478Z,10.41
2023-01-01T18:33:03.884Z,10.39
2023-01-01T18:35:30.229Z,10.38
2023-01-01T18:37:57.059Z,10.37
2023-01-01T18:40:23.919Z,10.32
2023-01-01T18:43:01.149Z,10.27
2023-01-01T18:45:27.742Z,10.22
2023-01-01T18:47:55.012Z,10.20
2023-01-01T18:50:25.701Z,10.17
2023-01-01T18:52:59.836Z,10.15
2023-01-01T18:55:28.065Z,10.14
2023-01-01T18:58:01.893Z,10.11
2023-01-01T19:00:31.062Z,10.11
2023-01-01T19:03:02.903Z,10.12
2023-01-01T19:05:34.892Z,10.10
2023-01-01T19:08:07.068Z,10.09
2023-01-01T19:10:42.178Z,10.09
2023-01-01T19:13:27.868Z,10.06
2023-01-01T19:16:02.834Z,10.06
2023-01-01T19:18:30.916Z,10.05
2023-01-01T19:21:15.790Z,10.05
2023-01-01T19:23:54.188Z,10.04
2023-01-01T19:26:34.543Z,10.04
2023-01-01T19:29:17.144Z,10.03
2023-01-01T19:31:51.671Z,10.03
2023-01-01T19:34:18.438Z,10.02
2023-01-01T19:36:46.269Z,10.01
2023-01-01T19:39:13.167Z,10.00
2023-01-01T19:41:39.610Z,10.01
2023-01-01T19:44:10.166Z,10.01
2023-01-01T19:46:36.959Z,10.00
2023-01-01T19:49:03.357Z,10.01
2023-01-01T19:51:29.700Z,10.02
2023-01-01T19:53:56.165Z,10.03
2023-01-01T19:56:22.666Z,10.03
2023-01-01T19:58:49.126Z,10.04
2023-01-01T20:01:16.142Z,10.02
2023-01-01T20:03:54.016Z,10.02
2023-01-01T20:06:22.102Z,10.02
2023-01-01T20:08:48.477Z,10.00
2023-01-01T20:11:15.425Z,10.00
2023-01-01T20:13:41.953Z,10.00
2023-01-01T20:16:09.351Z,9.99
2023-01-01T20:18:36.031Z,10.01
2023-01-01T20:21:25.921Z,10.00
2023-01-01T20:23:53.361Z,10.00
2023-01-01T20:26:20.727Z,10.00
2023-01-01T20:29:05.723Z,10.00
2023-01-01T20:31:32.138Z,9.98
2023-01-01T20:33:58.574Z,9.95
2023-01-01T20:36:43.525Z,9.95
2023-01-01T20:39:09.954Z,9.93
2023-01-01T20:41:36.447Z,9.92
2023-01-01T20:44:02.930Z,9.93
2023-01-01T20:46:32.495Z,9.93
2023-01-01T20:48:59.292Z,9.91
2023-01-01T20:51:25.678Z,9.91
2023-01-01T20:53:52.095Z,9.90
2023-01-01T20:56:18.544Z,9.89
2023-01-01T20:58:49.403Z,9.90
2023-01-01T21:01:18.340Z,9.92
2023-01-01T21:03:44.893Z,9.95
2023-01-01T21:06:11.239Z,9.93
2023-01-01T21:08:37.586Z,9.93
2023-01-01T21:11:04.130Z,9.92
2023-01-01T21:13:30.589Z,9.92
2023-01-01T21:16:06.681Z,9.92
2023-01-01T21:18:33.312Z,9.90
2023-01-01T21:21:00.951Z,9.90
2023-01-01T21:23:29.081Z,9.92
2023-01-01T21:25:56.188Z,9.92
2023-01-01T21:28:27.055Z,9.92
2023-01-01T21:30:56.531Z,9.93
2023-01-01T21:33:28.871Z,9.93
2023-01-01T21:35:55.738Z,9.93
2023-01-01T21:38:25.814Z,9.92
2023-01-01T21:40:59.296Z,9.92
2023-01-01T21:43:34.664Z,9.92
2023-01-01T21:46:06.890Z,9.92
2023-01-01T21:48:39.969Z,9.90
2023-01-01T21:51:31.678Z,9.90
2023-01-01T21:54:02.612Z,9.90
2023-01-01T21:56:30.828Z,9.89
2023-01-01T21:59:28.223Z,9.88
2023-01-01T22:01:56.039Z,9.88
2023-01-01T22:04:24.801Z,9.86
2023-01-01T22:07:09.491Z,9.87
2023-01-01T22:09:49.518Z,9.86
2023-01-01T22:12:15.884Z,9.86
2023-01-01T22:14:48.046Z,9.85
2023-01-01T22:17:23.435Z,9.85
2023-01-01T22:19:51.059Z,9.85
2023-01-01T22:22:20.506Z,9.84
2023-01-01T22:24:54.762Z,9.84
2023-01-01T22:27:32.623Z,9.85
2023-01-01T22:30:15.894Z,9.85
2023-01-01T22:32:54.562Z,9.86
2023-01-01T22:35:29.530Z,9.87
2023-01-01T22:37:57.649Z,9.87
2023-01-01T22:40:36.017Z,9.88
2023-01-01T22:43:05.584Z,9.89
2023-01-01T22:45:32.886Z,9.88
2023-01-01T22:48:01.526Z,9.91
2023-01-01T22:50:29.950Z,9.94
2023-01-01T22:52:57.204Z,9.99
2023-01-01T22:55:24.155Z,10.04
2023-01-01T22:57:50.557Z,10.09
2023-01-01T23:00:18.913Z,10.10
2023-01-01T23:02:46.016Z,10.14
2023-01-01T23:05:12.556Z,10.15
2023-01-01T23:07:42.146Z,10.18
2023-01-01T23:10:11.950Z,10.21
2023-01-01T23:12:38.301Z,10.23
2023-01-01T23:15:24.070Z,10.23
2023-01-01T23:17:50.448Z,10.20
2023-01-01T23:20:16.919Z,10.20
2023-01-01T23:22:47.353Z,10.19
2023-01-01T23:25:16.729Z,10.17
2023-01-01T23:27:44.827Z,10.16
2023-01-01T23:30:12.077Z,10.15
2023-01-01T23:32:38.529Z,10.15
2023-01-01T23:35:05.229Z,10.15
2023-01-01T23:37:31.646Z,10.15
2023-01-01T23:39:57.966Z,10.15
2023-01-01T23:42:24.396Z,10.16
2023-01-01T23:44:50.725Z,10.16
2023-01-01T23:47:17.173Z,10.19
2023-01-01T23:49:43.728Z,10.21
2023-01-01T23:52:10.360Z,10.23
2023-01-01T23:54:38.970Z,10.24
2023-01-01T23:57:05.558Z,10.26
2023-01-01T23:59:31.977Z,10.29
